createdAt,value
2023-03-02T00:01:51.209Z,7.11
2023-03-02T00:04:38.083Z,7.08
2023-03-02T00:07:10.222Z,7.04
2023-03-02T00:09:39.667Z,7.01
2023-03-02T00:12:09.232Z,6.97
2023-03-02T00:14:37.672Z,6.93
2023-03-02T00:17:06.617Z,6.92
2023-03-02T00:19:34.734Z,6.87
2023-03-02T00:22:04.130Z,6.84
2023-03-02T00:24:32.494Z,6.82
2023-03-02T00:27:00.763Z,6.80
2023-03-02T00:29:29.943Z,6.75
2023-03-02T00:31:59.329Z,6.71
2023-03-02T00:34:27.531Z,6.68
2023-03-02T00:36:55.802Z,6.63
2023-03-02T00:39:24.180Z,6.57
2023-03-02T00:41:52.648Z,6.54
2023-03-02T00:44:21.935Z,6.55
2023-03-02T00:46:50.172Z,6.55
2023-03-02T00:49:20.403Z,6.54
2023-03-02T00:51:48.671Z,6.53
2023-03-02T00:54:17.204Z,6.51
2023-03-02T00:56:46.386Z,6.47
2023-03-02T00:59:16.234Z,6.43
2023-03-02T01:01:44.430Z,6.40
2023-03-02T01:04:12.694Z,6.36
2023-03-02T01:06:40.963Z,6.33
2023-03-02T01:09:09.183Z,6.31
2023-03-02T01:11:37.437Z,6.28
2023-03-02T01:14:05.628Z,6.24
2023-03-02T01:16:34.576Z,6.23
2023-03-02T01:19:03.318Z,6.22
2023-03-02T01:21:31.608Z,6.22
2023-03-02T01:23:59.884Z,6.22
2023-03-02T01:26:28.453Z,6.19
2023-03-02T01:28:57.909Z,6.16
2023-03-02T01:31:27.040Z,6.12
2023-03-02T01:33:55.725Z,6.11
2023-03-02T01:36:24.626Z,6.12
2023-03-02T01:38:53.684Z,6.13
2023-03-02T01:41:22.528Z,6.13
2023-03-02T01:43:51.132Z,6.14
2023-03-02T01:46:26.365Z,6.14
2023-03-02T01:49:03.262Z,6.14
2023-03-02T01:51:37.408Z,6.13
2023-03-02T01:54:12.096Z,6.12
2023-03-02T01:56:41.138Z,6.10
2023-03-02T01:59:14.619Z,6.07
2023-03-02T02:01:47.522Z,6.04
2023-03-02T02:04:17.189Z,6.02
2023-03-02T02:06:51.245Z,5.99
2023-03-02T02:09:23.415Z,5.98
2023-03-02T02:11:52.725Z,5.95
2023-03-02T02:14:22.363Z,5.93
2023-03-02T02:16:52.235Z,5.91
2023-03-02T02:19:40.474Z,5.89
2023-03-02T02:22:11.853Z,5.85
2023-03-02T02:24:49.761Z,5.82
2023-03-02T02:27:19.552Z,5.78
2023-03-02T02:29:51.810Z,5.77
2023-03-02T02:32:26.140Z,5.76
2023-03-02T02:35:05.581Z,5.76
2023-03-02T02:37:40.085Z,5.78
2023-03-02T02:40:23.354Z,5.77
2023-03-02T02:42:53.908Z,5.75
2023-03-02T02:45:27.158Z,5.74
2023-03-02T02:47:57.234Z,5.72
2023-03-02T02:50:32.778Z,5.72
2023-03-02T02:53:11.717Z,5.73
2023-03-02T02:55:42.330Z,5.73
2023-03-02T02:58:33.226Z,5.73
2023-03-02T03:01:01.961Z,5.73
2023-03-02T03:03:36.216Z,5.74
2023-03-02T03:06:13.829Z,5.74
2023-03-02T03:08:55.856Z,5.76
2023-03-02T03:11:27.381Z,5.77
2023-03-02T03:14:09.145Z,5.78
2023-03-02T03:16:40.688Z,5.79
2023-03-02T03:19:19.591Z,5.81
2023-03-02T03:21:50.376Z,5.83
2023-03-02T03:24:19.163Z,5.86
2023-03-02T03:26:47.895Z,5.89
2023-03-02T03:29:18.785Z,5.93
2023-03-02T03:31:46.988Z,5.96
2023-03-02T03:34:15.361Z,5.98
2023-03-02T03:36:43.641Z,5.99
2023-03-02T03:39:14.588Z,5.99
2023-03-02T03:41:43.682Z,5.99
2023-03-02T03:44:12.820Z,5.97
2023-03-02T03:46:41.043Z,5.94
2023-03-02T03:49:09.860Z,5.91
2023-03-02T03:51:38.274Z,5.89
2023-03-02T03:54:08.872Z,5.88
2023-03-02T03:56:43.455Z,5.88
2023-03-02T03:59:15.894Z,5.88
2023-03-02T04:01:51.744Z,5.90
2023-03-02T04:04:26.234Z,5.92
2023-03-02T04:06:54.923Z,5.93
2023-03-02T04:09:24.066Z,5.93
2023-03-02T04:11:54.948Z,5.93
2023-03-02T04:14:24.375Z,5.91
2023-03-02T04:16:52.872Z,5.89
2023-03-02T04:19:22.589Z,5.85
2023-03-02T04:21:54.919Z,5.82
2023-03-02T04:24:25.022Z,5.79
2023-03-02T04:26:53.395Z,5.76
2023-03-02T04:29:21.603Z,5.72
2023-03-02T04:31:50.037Z,5.68
2023-03-02T04:34:18.644Z,5.65
2023-03-02T04:36:47.488Z,5.62
2023-03-02T04:39:19.440Z,5.59
2023-03-02T04:41:49.023Z,5.56
2023-03-02T04:44:18.463Z,5.52
2023-03-02T04:46:48.076Z,5.50
2023-03-02T04:49:18.797Z,5.48
2023-03-02T04:51:48.977Z,5.50
2023-03-02T04:54:21.198Z,5.50
2023-03-02T04:56:49.862Z,5.53
2023-03-02T04:59:20.423Z,5.53
2023-03-02T05:01:49.346Z,5.53
2023-03-02T05:04:17.813Z,5.53
2023-03-02T05:06:46.488Z,5.52
2023-03-02T05:09:14.808Z,5.49
2023-03-02T05:11:43.478Z,5.49
2023-03-02T05:14:13.420Z,5.48
2023-03-02T05:16:42.129Z,5.47
2023-03-02T05:19:12.594Z,5.47
2023-03-02T05:21:41.129Z,5.47
2023-03-02T05:24:10.442Z,5.48
2023-03-02T05:26:39.669Z,5.50
2023-03-02T05:29:08.352Z,5.53
2023-03-02T05:31:41.227Z,5.54
2023-03-02T05:34:12.300Z,5.54
2023-03-02T05:36:40.988Z,5.54
2023-03-02T05:39:10.216Z,5.52
2023-03-02T05:41:39.660Z,5.51
2023-03-02T05:44:08.988Z,5.50
2023-03-02T05:46:37.357Z,5.48
2023-03-02T05:49:06.303Z,5.47
2023-03-02T05:51:34.690Z,5.46
2023-03-02T05:54:02.923Z,5.45
2023-03-02T05:56:31.616Z,5.44
2023-03-02T05:59:00.421Z,5.44
2023-03-02T06:01:28.643Z,5.43
2023-03-02T06:03:56.947Z,5.42
2023-03-02T06:06:25.238Z,5.41
2023-03-02T06:08:53.351Z,5.43
2023-03-02T06:11:21.560Z,5.43
2023-03-02T06:13:50.132Z,5.44
2023-03-02T06:16:18.411Z,5.44
2023-03-02T06:18:47.250Z,5.45
2023-03-02T06:21:15.961Z,5.44
2023-03-02T06:23:45.030Z,5.43
2023-03-02T06:26:13.474Z,5.41
2023-03-02T06:28:56.815Z,5.39
2023-03-02T06:31:26.072Z,5.37
2023-03-02T06:33:54.361Z,5.35
2023-03-02T06:36:22.668Z,5.35
2023-03-02T06:38:51.097Z,5.34
2023-03-02T06:41:19.895Z,5.34
2023-03-02T06:43:48.141Z,5.33
2023-03-02T06:46:16.493Z,5.34
2023-03-02T06:48:44.648Z,5.36
2023-03-02T06:51:12.862Z,5.38
2023-03-02T06:53:41.105Z,5.42
2023-03-02T06:56:09.881Z,5.46
2023-03-02T06:58:39.318Z,5.52
2023-03-02T07:01:07.879Z,5.58
2023-03-02T07:03:36.727Z,5.66
2023-03-02T07:06:05.874Z,5.83
2023-03-02T07:08:34.572Z,6.25
2023-03-02T07:11:12.145Z,6.89
2023-03-02T07:13:40.672Z,7.80
2023-03-02T07:16:15.065Z,9.14
2023-03-02T07:18:43.327Z,10.78
2023-03-02T07:21:11.815Z,12.39
2023-03-02T07:23:40.235Z,13.71
2023-03-02T07:26:08.595Z,14.55
2023-03-02T07:28:38.428Z,15.36
2023-03-02T07:31:07.346Z,16.49
2023-03-02T07:33:36.725Z,17.80
2023-03-02T07:36:07.794Z,19.15
2023-03-02T07:38:37.514Z,20.46
2023-03-02T07:41:10.076Z,21.71
2023-03-02T07:43:38.594Z,22.94
2023-03-02T07:46:07.028Z,23.97
2023-03-02T07:48:36.817Z,24.75
2023-03-02T07:51:06.550Z,25.43
2023-03-02T07:53:35.179Z,25.74
2023-03-02T07:56:11.408Z,25.67
2023-03-02T07:58:39.947Z,25.25
2023-03-02T08:01:09.012Z,24.99
2023-03-02T08:03:37.451Z,25.20
2023-03-02T08:06:08.581Z,25.78
2023-03-02T08:08:38.425Z,26.49
2023-03-02T08:11:09.043Z,27.16
2023-03-02T08:13:37.668Z,27.75
2023-03-02T08:16:08.464Z,28.25
2023-03-02T08:18:37.723Z,28.77
2023-03-02T08:21:18.642Z,29.18
2023-03-02T08:23:47.184Z,29.62
2023-03-02T08:26:17.643Z,30.18
2023-03-02T08:28:47.096Z,30.78
2023-03-02T08:31:16.407Z,31.37
2023-03-02T08:33:45.177Z,31.86
2023-03-02T08:36:16.737Z,32.24
2023-03-02T08:38:46.532Z,32.57
2023-03-02T08:41:19.044Z,32.93
2023-03-02T08:43:48.235Z,33.35
2023-03-02T08:46:18.801Z,33.68
2023-03-02T08:48:47.831Z,33.99
2023-03-02T08:51:19.868Z,34.25
2023-03-02T08:53:49.989Z,34.54
2023-03-02T08:56:21.915Z,34.75
2023-03-02T08:58:51.773Z,34.95
2023-03-02T09:01:24.153Z,35.16
2023-03-02T09:03:52.855Z,35.27
2023-03-02T09:06:21.276Z,35.34
2023-03-02T09:08:50.581Z,35.53
2023-03-02T09:11:19.217Z,35.79
2023-03-02T09:13:48.619Z,36.01
2023-03-02T09:16:19.489Z,36.24
2023-03-02T09:18:48.362Z,36.32
2023-03-02T09:21:18.990Z,36.38
2023-03-02T09:23:47.462Z,36.50
2023-03-02T09:26:16.834Z,36.59
2023-03-02T09:28:45.027Z,36.64
2023-03-02T09:31:13.586Z,36.53
2023-03-02T09:33:41.970Z,36.23
2023-03-02T09:36:15.998Z,35.81
2023-03-02T09:38:44.392Z,35.11
2023-03-02T09:41:57.804Z,34.20
2023-03-02T09:44:38.086Z,33.21
2023-03-02T09:47:34.819Z,32.61
2023-03-02T09:50:26.361Z,32.47
2023-03-02T09:53:24.817Z,32.74
2023-03-02T09:55:56.848Z,32.86
2023-03-02T09:58:31.920Z,32.71
2023-03-02T10:01:03.944Z,32.98
2023-03-02T10:03:41.379Z,33.63
2023-03-02T10:06:10.057Z,34.39
2023-03-02T10:08:38.522Z,34.93
2023-03-02T10:11:25.406Z,34.98
2023-03-02T10:14:06.863Z,34.52
2023-03-02T10:16:43.461Z,34.32
2023-03-02T10:19:33.847Z,34.65
2023-03-02T10:22:36.883Z,35.21
2023-03-02T10:25:33.215Z,35.62
2023-03-02T10:28:24.468Z,35.17
2023-03-02T10:31:05.453Z,34.47
2023-03-02T10:33:34.630Z,34.22
2023-03-02T10:36:05.070Z,34.28
2023-03-02T10:38:33.634Z,34.46
2023-03-02T10:41:05.672Z,34.58
2023-03-02T10:43:42.599Z,34.52
2023-03-02T10:46:12.899Z,34.38
2023-03-02T10:48:56.522Z,34.39
2023-03-02T10:51:30.114Z,34.36
2023-03-02T10:54:13.850Z,33.91
2023-03-02T10:56:51.699Z,33.50
2023-03-02T10:59:32.218Z,33.37
2023-03-02T11:02:16.135Z,33.26
2023-03-02T11:04:45.056Z,33.18
2023-03-02T11:07:25.155Z,32.97
2023-03-02T11:10:06.892Z,32.88
2023-03-02T11:12:37.057Z,32.74
2023-03-02T11:15:32.958Z,32.46
2023-03-02T11:18:04.061Z,32.16
2023-03-02T11:20:37.981Z,31.93
2023-03-02T11:23:18.173Z,31.28
2023-03-02T11:25:52.677Z,30.73
2023-03-02T11:28:38.710Z,30.49
2023-03-02T11:31:15.925Z,30.23
2023-03-02T11:34:16.987Z,29.85
2023-03-02T11:37:13.005Z,29.54
2023-03-02T11:40:16.990Z,29.30
2023-03-02T11:42:47.162Z,29.09
2023-03-02T11:45:20.406Z,29.01
2023-03-02T11:48:07.851Z,28.46
2023-03-02T11:51:08.236Z,28.26
2023-03-02T11:53:42.985Z,28.27
2023-03-02T11:56:11.395Z,28.08
2023-03-02T11:58:42.032Z,27.48
2023-03-02T12:01:15.965Z,27.16
2023-03-02T12:03:45.058Z,27.20
2023-03-02T12:06:18.935Z,27.20
2023-03-02T12:08:54.034Z,26.71
2023-03-02T12:11:22.678Z,25.73
2023-03-02T12:14:01.372Z,24.49
2023-03-02T12:16:39.603Z,23.50
2023-03-02T12:19:16.898Z,22.74
2023-03-02T12:22:04.185Z,22.11
2023-03-02T12:24:34.691Z,21.40
2023-03-02T12:27:23.560Z,20.89
2023-03-02T12:29:57.297Z,20.49
2023-03-02T12:32:30.269Z,20.31
2023-03-02T12:35:07.601Z,20.14
2023-03-02T12:37:42.384Z,19.96
2023-03-02T12:40:33.401Z,19.71
2023-03-02T12:43:26.031Z,19.25
2023-03-02T12:46:45.435Z,18.71
2023-03-02T12:49:16.299Z,18.36
2023-03-02T12:52:18.406Z,18.14
2023-03-02T12:54:46.588Z,17.73
2023-03-02T12:57:20.311Z,17.36
2023-03-02T12:59:58.076Z,17.13
2023-03-02T13:02:36.990Z,16.97
2023-03-02T13:05:08.755Z,16.93
2023-03-02T13:07:42.131Z,16.77
2023-03-02T13:10:30.327Z,16.71
2023-03-02T13:13:00.262Z,16.66
2023-03-02T13:15:29.304Z,16.62
2023-03-02T13:17:59.862Z,16.64
2023-03-02T13:20:30.068Z,16.62
2023-03-02T13:22:59.405Z,16.54
2023-03-02T13:25:31.948Z,16.34
2023-03-02T13:28:02.596Z,16.09
2023-03-02T13:30:32.627Z,15.97
2023-03-02T13:33:18.620Z,15.96
2023-03-02T13:35:48.580Z,15.93
2023-03-02T13:38:19.929Z,15.83
2023-03-02T13:40:54.215Z,15.79
2023-03-02T13:43:36.414Z,15.79
2023-03-02T13:46:27.055Z,15.83
2023-03-02T13:49:11.335Z,15.83
2023-03-02T13:51:46.505Z,15.68
2023-03-02T13:54:22.639Z,15.76
2023-03-02T13:56:52.992Z,15.91
2023-03-02T13:59:22.400Z,16.01
2023-03-02T14:01:50.965Z,15.98
2023-03-02T14:04:21.053Z,15.92
2023-03-02T14:06:51.223Z,15.82
2023-03-02T14:09:20.098Z,15.75
2023-03-02T14:11:53.640Z,15.73
2023-03-02T14:14:24.757Z,15.64
2023-03-02T14:16:53.284Z,15.47
2023-03-02T14:19:21.432Z,15.33
2023-03-02T14:21:49.518Z,15.26
2023-03-02T14:24:17.810Z,15.33
2023-03-02T14:26:50.513Z,15.49
2023-03-02T14:29:34.904Z,15.68
2023-03-02T14:32:04.593Z,15.77
2023-03-02T14:34:36.018Z,15.71
2023-03-02T14:37:18.110Z,15.71
2023-03-02T14:39:49.180Z,15.78
2023-03-02T14:42:22.050Z,15.78
2023-03-02T14:44:51.597Z,15.69
2023-03-02T14:47:19.959Z,15.50
2023-03-02T14:49:48.363Z,15.37
2023-03-02T14:52:54.829Z,15.27
2023-03-02T14:55:26.952Z,15.18
2023-03-02T14:58:10.595Z,15.19
2023-03-02T15:00:39.171Z,15.24
2023-03-02T15:03:07.346Z,15.27
2023-03-02T15:05:35.638Z,15.25
2023-03-02T15:08:04.023Z,15.32
2023-03-02T15:10:32.351Z,15.34
2023-03-02T15:13:00.385Z,15.36
2023-03-02T15:15:28.533Z,15.41
2023-03-02T15:17:56.925Z,15.45
2023-03-02T15:20:25.679Z,15.45
2023-03-02T15:22:54.009Z,15.43
2023-03-02T15:25:22.206Z,15.33
2023-03-02T15:27:50.783Z,15.31
2023-03-02T15:30:19.844Z,15.33
2023-03-02T15:32:51.849Z,15.30
2023-03-02T15:35:19.995Z,15.32
2023-03-02T15:37:48.103Z,15.32
2023-03-02T15:40:16.265Z,15.26
2023-03-02T15:42:44.688Z,15.22
2023-03-02T15:45:12.684Z,15.16
2023-03-02T15:47:40.806Z,15.12
2023-03-02T15:50:10.379Z,14.97
2023-03-02T15:52:38.634Z,14.84
2023-03-02T15:55:07.073Z,14.74
2023-03-02T15:57:39.591Z,14.64
2023-03-02T16:00:09.274Z,14.61
2023-03-02T16:02:37.308Z,14.60
2023-03-02T16:05:05.993Z,14.54
2023-03-02T16:07:34.224Z,14.50
2023-03-02T16:10:05.496Z,14.45
2023-03-02T16:12:33.808Z,14.42
2023-03-02T16:15:01.913Z,14.46
2023-03-02T16:17:30.010Z,14.47
2023-03-02T16:19:58.561Z,14.37
2023-03-02T16:22:26.735Z,14.25
2023-03-02T16:24:54.931Z,14.05
2023-03-02T16:27:23.723Z,13.91
2023-03-02T16:29:51.950Z,13.85
2023-03-02T16:32:20.463Z,13.86
2023-03-02T16:34:48.914Z,13.86
2023-03-02T16:37:17.190Z,13.86
2023-03-02T16:39:45.350Z,13.90
2023-03-02T16:42:13.643Z,13.94
2023-03-02T16:44:41.839Z,13.89
2023-03-02T16:47:10.030Z,13.79
2023-03-02T16:49:38.405Z,13.77
2023-03-02T16:52:06.814Z,13.80
2023-03-02T16:54:35.017Z,13.83
2023-03-02T16:57:03.254Z,13.87
2023-03-02T16:59:31.977Z,13.92
2023-03-02T17:02:00.517Z,13.95
2023-03-02T17:04:29.107Z,13.98
2023-03-02T17:07:01.327Z,14.00
2023-03-02T17:09:31.459Z,13.95
2023-03-02T17:11:59.742Z,13.86
2023-03-02T17:14:28.368Z,13.76
2023-03-02T17:16:56.745Z,13.62
2023-03-02T17:19:25.928Z,13.50
2023-03-02T17:21:57.118Z,13.43
2023-03-02T17:24:26.483Z,13.32
2023-03-02T17:26:55.255Z,13.22
2023-03-02T17:29:23.752Z,13.17
2023-03-02T17:31:52.037Z,13.12
2023-03-02T17:34:20.451Z,13.02
2023-03-02T17:36:48.634Z,12.88
2023-03-02T17:39:16.836Z,12.75
2023-03-02T17:41:45.113Z,12.68
2023-03-02T17:44:13.737Z,12.61
2023-03-02T17:46:43.944Z,12.54
2023-03-02T17:49:12.415Z,12.45
2023-03-02T17:51:40.964Z,12.34
2023-03-02T17:54:09.113Z,12.25
2023-03-02T17:56:37.591Z,12.15
2023-03-02T17:59:06.293Z,12.06
2023-03-02T18:01:35.460Z,11.97
2023-03-02T18:04:03.892Z,11.90
2023-03-02T18:06:32.420Z,11.84
2023-03-02T18:09:00.749Z,11.78
2023-03-02T18:11:30.631Z,11.73
2023-03-02T18:13:59.133Z,11.68
2023-03-02T18:16:28.895Z,11.65
2023-03-02T18:18:57.167Z,11.61
2023-03-02T18:21:26.024Z,11.58
2023-03-02T18:23:54.989Z,11.53
2023-03-02T18:26:23.603Z,11.50
2023-03-02T18:28:51.781Z,11.47
2023-03-02T18:31:20.397Z,11.44
2023-03-02T18:33:48.577Z,11.42
2023-03-02T18:36:17.984Z,11.38
2023-03-02T18:38:46.667Z,11.36
2023-03-02T18:41:14.913Z,11.33
2023-03-02T18:43:43.528Z,11.31
2023-03-02T18:46:24.020Z,11.30
2023-03-02T18:48:54.046Z,11.28
2023-03-02T18:51:24.752Z,11.25
2023-03-02T18:53:54.707Z,11.24
2023-03-02T18:56:23.565Z,11.22
2023-03-02T18:58:55.704Z,11.21
2023-03-02T19:01:24.377Z,11.22
2023-03-02T19:03:52.835Z,11.22
2023-03-02T19:06:22.263Z,11.23
2023-03-02T19:08:50.484Z,11.23
2023-03-02T19:11:18.662Z,11.24
2023-03-02T19:13:47.854Z,11.25
2023-03-02T19:16:17.854Z,11.25
2023-03-02T19:18:46.886Z,11.27
2023-03-02T19:21:15.079Z,11.29
2023-03-02T19:23:45.570Z,11.31
2023-03-02T19:26:14.764Z,11.32
2023-03-02T19:28:42.845Z,11.33
2023-03-02T19:31:11.349Z,11.33
2023-03-02T19:33:40.461Z,11.34
2023-03-02T19:36:09.903Z,11.32
2023-03-02T19:38:38.557Z,11.31
2023-03-02T19:41:07.068Z,11.29
2023-03-02T19:43:35.465Z,11.27
2023-03-02T19:46:04.175Z,11.25
2023-03-02T19:48:32.600Z,11.23
2023-03-02T19:51:01.011Z,11.20
2023-03-02T19:53:29.215Z,11.18
2023-03-02T19:56:09.619Z,11.14
2023-03-02T19:58:37.829Z,11.10
2023-03-02T20:01:06.215Z,11.07
2023-03-02T20:03:34.484Z,11.02
2023-03-02T20:06:02.595Z,10.96
2023-03-02T20:08:30.924Z,10.91
2023-03-02T20:10:59.303Z,10.85
2023-03-02T20:13:28.497Z,10.80
2023-03-02T20:15:56.616Z,10.74
2023-03-02T20:18:24.835Z,10.69
2023-03-02T20:20:53.159Z,10.64
2023-03-02T20:23:21.561Z,10.60
2023-03-02T20:25:49.862Z,10.55
2023-03-02T20:28:23.039Z,10.50
2023-03-02T20:30:57.947Z,10.45
2023-03-02T20:33:34.249Z,10.39
2023-03-02T20:36:02.864Z,10.33
2023-03-02T20:38:35.588Z,10.29
2023-03-02T20:41:06.861Z,10.25
2023-03-02T20:43:36.003Z,10.21
2023-03-02T20:46:05.035Z,10.18
2023-03-02T20:48:34.171Z,10.14
2023-03-02T20:51:03.253Z,10.10
2023-03-02T20:53:31.707Z,10.05
2023-03-02T20:56:00.240Z,10.00
2023-03-02T20:58:29.060Z,9.96
2023-03-02T21:00:57.187Z,9.93
2023-03-02T21:03:26.360Z,9.90
2023-03-02T21:05:56.332Z,9.86
2023-03-02T21:08:24.869Z,9.83
2023-03-02T21:10:53.159Z,9.79
2023-03-02T21:13:21.457Z,9.77
2023-03-02T21:15:49.982Z,9.75
2023-03-02T21:18:19.425Z,9.71
2023-03-02T21:20:48.136Z,9.67
2023-03-02T21:23:16.579Z,9.64
2023-03-02T21:25:45.804Z,9.62
2023-03-02T21:28:14.972Z,9.61
2023-03-02T21:30:44.474Z,9.59
2023-03-02T21:33:13.310Z,9.58
2023-03-02T21:35:42.463Z,9.56
2023-03-02T21:38:11.305Z,9.52
2023-03-02T21:40:42.463Z,9.49
2023-03-02T21:43:11.284Z,9.45
2023-03-02T21:45:40.423Z,9.42
2023-03-02T21:48:09.298Z,9.38
2023-03-02T21:50:40.251Z,9.36
2023-03-02T21:53:09.404Z,9.33
2023-03-02T21:55:38.024Z,9.31
2023-03-02T21:58:07.105Z,9.29
2023-03-02T22:00:38.701Z,9.28
2023-03-02T22:03:07.640Z,9.27
2023-03-02T22:05:36.041Z,9.27
2023-03-02T22:08:04.395Z,9.25
2023-03-02T22:10:42.393Z,9.23
2023-03-02T22:13:13.455Z,9.20
2023-03-02T22:15:41.806Z,9.20
2023-03-02T22:18:16.966Z,9.19
2023-03-02T22:20:48.720Z,9.18
2023-03-02T22:23:20.467Z,9.17
2023-03-02T22:25:55.951Z,9.16
2023-03-02T22:28:26.667Z,9.14
2023-03-02T22:30:59.068Z,9.10
2023-03-02T22:33:29.164Z,9.07
2023-03-02T22:36:14.127Z,9.05
2023-03-02T22:38:42.382Z,9.01
2023-03-02T22:41:15.242Z,8.99
2023-03-02T22:43:44.556Z,8.99
2023-03-02T22:46:18.521Z,8.98
2023-03-02T22:48:49.074Z,8.97
2023-03-02T22:51:20.042Z,8.95
2023-03-02T22:53:58.664Z,8.92
2023-03-02T22:56:48.344Z,8.89
2023-03-02T22:59:28.514Z,8.86
2023-03-02T23:02:02.125Z,8.84
2023-03-02T23:04:37.309Z,8.81
2023-03-02T23:07:16.819Z,8.78
2023-03-02T23:09:45.163Z,8.76
2023-03-02T23:12:23.334Z,8.74
2023-03-02T23:14:54.368Z,8.72
2023-03-02T23:17:36.670Z,8.69
2023-03-02T23:20:08.426Z,8.67
2023-03-02T23:22:37.736Z,8.64
2023-03-02T23:25:10.104Z,8.62
2023-03-02T23:27:38.543Z,8.58
2023-03-02T23:30:07.169Z,8.56
2023-03-02T23:32:35.708Z,8.54
2023-03-02T23:35:04.056Z,8.53
2023-03-02T23:37:32.212Z,8.51
2023-03-02T23:40:00.360Z,8.50
2023-03-02T23:42:28.547Z,8.49
2023-03-02T23:44:56.693Z,8.48
2023-03-02T23:47:25.196Z,8.46
2023-03-02T23:49:53.369Z,8.43
2023-03-02T23:52:21.501Z,8.41
2023-03-02T23:54:49.627Z,8.38
2023-03-02T23:57:17.791Z,8.35
2023-03-02T23:59:45.907Z,8.33
